Time;durP1;ratioP1;P1;durP2;ratioP2;P2;SDS_P1;SDS_P2;PMS_P1;PMS_P2;Temp;Humidity;BMP_temperature;BMP_pressure;BME280_temperature;BME280_humidity;BME280_pressure;Samples;Min_cycle;Max_cycle;Signal;HPM_P1;HPM_P2
2022/05/04 00:01:26;;;;;;;16.88;3.42;;;8.80;99.90;;;;;;5022024;28;20493;-56
2022/05/04 00:03:52;;;;;;;8.15;2.83;;;8.80;99.90;;;;;;5015726;28;20067;-56
2022/05/04 00:06:18;;;;;;;13.32;3.50;;;8.80;99.90;;;;;;5029194;28;20515;-46
2022/05/04 00:08:44;;;;;;;10.82;3.33;;;8.80;99.90;;;;;;5027642;28;20413;-56
2022/05/04 00:11:10;;;;;;;14.10;3.78;;;8.80;99.90;;;;;;5031788;28;20041;-57
2022/05/04 00:13:37;;;;;;;10.57;3.22;;;8.80;99.90;;;;;;5031193;28;20044;-48
2022/05/04 00:16:03;;;;;;;10.45;3.40;;;8.80;99.90;;;;;;5017447;28;20865;-52
2022/05/04 00:18:30;;;;;;;11.43;3.35;;;8.80;99.90;;;;;;5028256;28;20045;-48
2022/05/04 00:20:57;;;;;;;12.30;3.67;;;8.80;99.90;;;;;;5027704;28;20315;-50
2022/05/04 00:23:24;;;;;;;10.65;3.63;;;8.80;99.90;;;;;;5035130;28;20049;-50
2022/05/04 00:25:50;;;;;;;12.05;3.67;;;8.80;99.90;;;;;;5029143;28;20052;-55
2022/05/04 00:28:17;;;;;;;12.15;3.40;;;8.70;99.90;;;;;;5016486;28;20048;-56
2022/05/04 00:30:44;;;;;;;13.23;4.05;;;8.70;99.90;;;;;;5032389;28;20049;-46
2022/05/04 00:33:10;;;;;;;18.02;3.92;;;8.70;99.90;;;;;;5033371;28;20059;-50
2022/05/04 00:35:37;;;;;;;14.48;3.85;;;8.70;99.90;;;;;;5013596;28;20107;-48
2022/05/04 00:38:03;;;;;;;16.60;4.05;;;8.70;99.90;;;;;;5037374;28;20044;-56
2022/05/04 00:40:29;;;;;;;9.45;3.35;;;8.80;99.90;;;;;;5031603;28;20124;-56
2022/05/04 00:42:56;;;;;;;10.35;3.88;;;8.70;99.90;;;;;;5041215;28;20460;-49
2022/05/04 00:45:22;;;;;;;9.02;3.25;;;8.60;99.90;;;;;;5034497;28;20046;-50
2022/05/04 00:47:49;;;;;;;17.77;4.93;;;8.70;99.90;;;;;;5028565;28;20045;-56
2022/05/04 00:50:16;;;;;;;13.05;3.92;;;8.70;99.90;;;;;;5039212;28;20041;-56
2022/05/04 00:52:44;;;;;;;12.32;4.32;;;8.60;99.90;;;;;;5034237;28;20045;-49
2022/05/04 00:55:10;;;;;;;12.18;3.75;;;8.70;99.90;;;;;;5033201;28;20542;-50
2022/05/04 01:00:25;;;;;;;9.93;3.78;;;8.60;99.90;;;;;;5023492;28;20127;-47
2022/05/04 01:02:51;;;;;;;11.30;4.35;;;8.60;99.90;;;;;;5025315;28;20830;-48
2022/05/04 01:05:18;;;;;;;9.85;3.30;;;8.60;99.90;;;;;;5032770;28;20128;-46
2022/05/04 01:07:46;;;;;;;9.25;3.20;;;8.60;99.90;;;;;;5035463;28;20115;-47
2022/05/04 01:10:14;;;;;;;14.52;4.03;;;8.60;99.90;;;;;;5029020;28;20102;-51
2022/05/04 01:12:54;;;;;;;11.20;3.97;;;8.60;99.90;;;;;;5019737;28;20480;-46
2022/05/04 01:15:22;;;;;;;12.25;3.92;;;8.50;99.90;;;;;;5037553;28;20045;-46
2022/05/04 01:17:48;;;;;;;13.85;3.90;;;8.50;99.90;;;;;;5008174;28;20141;-47
2022/05/04 01:20:16;;;;;;;9.57;3.60;;;8.50;99.90;;;;;;5035954;28;20618;-48
2022/05/04 01:22:42;;;;;;;9.15;3.20;;;8.50;99.90;;;;;;5035065;28;20084;-46
2022/05/04 01:25:10;;;;;;;11.45;3.38;;;8.40;99.90;;;;;;5041147;28;20084;-48
2022/05/04 01:27:36;;;;;;;10.95;3.75;;;8.40;99.90;;;;;;5033891;28;20048;-49
2022/05/04 01:30:04;;;;;;;11.90;3.50;;;8.50;99.90;;;;;;5026066;28;20060;-47
2022/05/04 01:32:31;;;;;;;11.20;3.75;;;8.50;99.90;;;;;;5020785;28;20045;-50
2022/05/04 01:34:58;;;;;;;9.85;3.45;;;8.40;99.90;;;;;;5010223;28;20049;-49
2022/05/04 01:37:24;;;;;;;11.30;4.20;;;8.40;99.90;;;;;;5052221;28;20114;-49
2022/05/04 01:39:51;;;;;;;8.30;3.80;;;8.40;99.90;;;;;;5016377;28;20045;-47
2022/05/04 01:42:17;;;;;;;8.52;3.65;;;8.40;99.90;;;;;;5033422;28;20073;-50
2022/05/04 01:44:45;;;;;;;11.35;4.15;;;8.40;99.90;;;;;;5035372;28;20079;-47
2022/05/04 01:47:12;;;;;;;12.15;3.80;;;8.40;99.90;;;;;;5033272;28;20478;-46
2022/05/04 01:49:38;;;;;;;13.57;4.45;;;8.30;99.90;;;;;;5028797;28;20430;-46
2022/05/04 01:52:05;;;;;;;13.60;3.58;;;8.40;99.90;;;;;;5041334;28;20045;-45
2022/05/04 01:54:31;;;;;;;13.27;3.95;;;8.30;99.90;;;;;;5037851;28;20037;-49
2022/05/04 01:56:58;;;;;;;13.18;3.83;;;8.30;99.90;;;;;;5030587;28;20045;-50
2022/05/04 01:59:24;;;;;;;10.13;3.72;;;8.30;99.90;;;;;;5014215;28;20640;-49
2022/05/04 02:01:50;;;;;;;9.18;3.30;;;8.30;99.90;;;;;;5031410;28;20107;-48
2022/05/04 02:04:17;;;;;;;11.55;3.80;;;8.30;99.90;;;;;;5034132;28;20033;-47
2022/05/04 02:06:44;;;;;;;9.85;3.17;;;8.30;99.90;;;;;;5034768;28;20053;-49
2022/05/04 02:09:11;;;;;;;11.45;4.13;;;8.30;99.90;;;;;;5038914;28;20049;-49
2022/05/04 02:11:37;;;;;;;14.43;3.90;;;8.20;99.90;;;;;;5001524;28;20098;-56
2022/05/04 02:14:04;;;;;;;10.63;3.58;;;8.20;99.90;;;;;;4997901;28;20102;-56
2022/05/04 02:16:31;;;;;;;11.13;3.50;;;8.20;99.90;;;;;;5036785;28;20467;-56
2022/05/04 02:18:58;;;;;;;10.05;3.60;;;8.30;99.90;;;;;;5035368;28;20053;-56
2022/05/04 02:21:24;;;;;;;10.60;3.40;;;8.30;99.90;;;;;;5033775;28;20417;-56
2022/05/04 02:23:51;;;;;;;12.32;3.75;;;8.30;99.90;;;;;;5030030;28;20534;-56
2022/05/04 02:26:17;;;;;;;12.52;3.45;;;8.30;99.90;;;;;;5036149;28;20044;-56
2022/05/04 02:28:44;;;;;;;10.18;3.60;;;8.30;99.90;;;;;;5035874;28;20053;-47
2022/05/04 02:31:11;;;;;;;12.68;3.67;;;8.20;99.90;;;;;;5030204;28;20135;-48
2022/05/04 02:33:37;;;;;;;12.35;4.20;;;8.20;99.90;;;;;;5021576;28;20051;-49
2022/05/04 02:38:48;;;;;;;11.27;4.28;;;8.20;99.90;;;;;;5038468;28;20602;-47
2022/05/04 02:41:14;;;;;;;14.73;4.00;;;8.20;99.90;;;;;;5031433;28;20592;-47
2022/05/04 02:43:41;;;;;;;7.93;4.10;;;8.20;99.90;;;;;;4998081;28;20128;-49
2022/05/04 02:46:18;;;;;;;10.25;3.65;;;8.20;99.90;;;;;;5022700;28;20061;-47
2022/05/04 02:48:45;;;;;;;14.95;4.15;;;8.20;99.90;;;;;;5025951;28;20128;-50
2022/05/04 02:51:12;;;;;;;11.38;3.90;;;8.20;99.90;;;;;;5030975;28;20464;-56
2022/05/04 02:53:38;;;;;;;11.15;3.70;;;8.20;99.90;;;;;;5037211;28;20040;-56
2022/05/04 02:56:05;;;;;;;11.27;3.88;;;8.20;99.90;;;;;;5027004;28;20433;-56
2022/05/04 02:58:31;;;;;;;10.32;4.00;;;8.20;99.90;;;;;;5036197;28;20047;-46
2022/05/04 03:03:56;;;;;;;12.27;4.07;;;8.20;99.90;;;;;;5025363;28;20056;-50
2022/05/04 03:06:22;;;;;;;10.35;3.40;;;8.20;99.90;;;;;;5030774;28;20115;-47
2022/05/04 03:08:49;;;;;;;11.98;3.90;;;8.10;99.90;;;;;;5030959;28;20055;-56
2022/05/04 03:13:59;;;;;;;10.00;3.55;;;8.20;99.90;;;;;;5025274;28;20401;-56
2022/05/04 03:16:26;;;;;;;13.32;3.83;;;8.20;99.90;;;;;;5028242;28;20129;-56
2022/05/04 03:18:52;;;;;;;11.70;4.25;;;8.10;99.90;;;;;;5037903;28;20051;-56
2022/05/04 03:21:18;;;;;;;6.80;3.40;;;8.10;99.90;;;;;;5028381;28;20269;-56
2022/05/04 03:23:44;;;;;;;9.73;3.42;;;8.10;99.90;;;;;;5035019;28;20416;-56
2022/05/04 03:26:11;;;;;;;15.95;4.10;;;8.00;99.90;;;;;;5032768;28;20595;-57
2022/05/04 03:28:37;;;;;;;12.20;3.63;;;8.10;99.90;;;;;;5031842;28;20512;-56
2022/05/04 03:31:03;;;;;;;12.38;3.67;;;8.10;99.90;;;;;;5035883;28;21044;-56
2022/05/04 03:33:29;;;;;;;12.23;3.80;;;8.00;99.90;;;;;;5006452;28;20048;-56
2022/05/04 03:35:55;;;;;;;14.15;3.97;;;8.00;99.90;;;;;;5039842;28;20468;-47
2022/05/04 03:38:22;;;;;;;14.25;4.57;;;8.00;99.90;;;;;;5009933;28;20754;-56
2022/05/04 03:40:49;;;;;;;14.82;4.30;;;7.90;99.90;;;;;;5041462;28;20071;-56
2022/05/04 03:43:15;;;;;;;12.70;4.35;;;7.90;99.90;;;;;;5029008;28;20033;-56
2022/05/04 03:45:41;;;;;;;10.95;3.78;;;7.90;99.90;;;;;;5038305;28;20048;-48
2022/05/04 03:48:07;;;;;;;14.15;4.22;;;7.90;99.90;;;;;;5033131;28;20496;-56
2022/05/04 03:50:33;;;;;;;13.07;3.83;;;7.90;99.90;;;;;;5033292;28;20080;-56
2022/05/04 03:52:59;;;;;;;9.98;4.25;;;7.80;99.90;;;;;;5029897;28;20048;-56
2022/05/04 03:55:25;;;;;;;12.73;4.30;;;7.80;99.90;;;;;;5032200;28;20107;-56
2022/05/04 03:57:52;;;;;;;12.85;4.05;;;7.80;99.90;;;;;;5035337;28;20125;-56
2022/05/04 04:00:19;;;;;;;12.75;4.40;;;7.80;99.90;;;;;;5031824;28;20467;-56
2022/05/04 04:02:45;;;;;;;10.95;4.32;;;7.80;99.90;;;;;;5037672;28;20508;-56
2022/05/04 04:05:12;;;;;;;12.38;4.45;;;7.80;99.90;;;;;;5012249;28;20350;-56
2022/05/04 04:07:39;;;;;;;13.98;4.30;;;7.90;99.90;;;;;;5033822;28;20049;-56
2022/05/04 04:10:06;;;;;;;11.60;4.32;;;7.90;99.90;;;;;;5024876;28;20088;-56
2022/05/04 04:12:32;;;;;;;8.73;4.05;;;7.90;99.90;;;;;;5024588;28;20563;-55
2022/05/04 04:14:58;;;;;;;10.98;3.88;;;7.90;99.90;;;;;;5045007;28;20160;-56
2022/05/04 04:17:24;;;;;;;11.25;3.90;;;7.90;99.90;;;;;;5043858;28;20191;-52
2022/05/04 04:21:50;;;;;;;10.48;3.92;;;8.00;99.90;;;;;;5038409;28;20134;-56
2022/05/04 04:22:36;;;;;;;14.15;3.75;;;7.90;99.90;;;;;;5040333;28;20582;-56
2022/05/04 04:25:02;;;;;;;9.13;4.68;;;7.90;99.90;;;;;;5039377;28;20499;-56
2022/05/04 04:27:32;;;;;;;8.57;4.05;;;8.00;99.90;;;;;;5022045;28;20041;-56
2022/05/04 04:29:58;;;;;;;10.93;4.28;;;7.90;99.90;;;;;;5043996;28;20053;-56
2022/05/04 04:32:25;;;;;;;14.90;4.75;;;7.90;99.90;;;;;;5041541;28;20040;-48
2022/05/04 04:34:51;;;;;;;13.25;4.47;;;7.90;99.90;;;;;;5043997;28;20043;-50
2022/05/04 04:37:17;;;;;;;11.27;3.90;;;8.00;99.90;;;;;;5010572;28;20057;-56
2022/05/04 04:39:43;;;;;;;13.02;4.45;;;8.00;99.90;;;;;;5037281;28;20047;-56
2022/05/04 04:42:12;;;;;;;16.02;4.53;;;8.00;99.90;;;;;;5037515;28;20233;-52
2022/05/04 04:44:39;;;;;;;14.05;4.53;;;8.00;99.90;;;;;;5033297;28;20455;-56
2022/05/04 04:47:05;;;;;;;12.43;4.43;;;8.00;99.90;;;;;;5040385;28;20049;-46
2022/05/04 04:49:31;;;;;;;9.98;4.78;;;8.00;99.90;;;;;;5028208;28;20053;-47
2022/05/04 04:51:57;;;;;;;14.07;4.75;;;8.00;99.90;;;;;;5036200;28;20115;-47
2022/05/04 04:54:23;;;;;;;14.00;5.32;;;8.00;99.90;;;;;;5018416;28;20052;-49
2022/05/04 04:56:50;;;;;;;13.13;4.28;;;8.00;99.90;;;;;;5039498;28;20053;-48
2022/05/04 04:59:16;;;;;;;7.40;3.95;;;8.10;99.90;;;;;;5042505;28;20488;-51
2022/05/04 05:01:42;;;;;;;9.80;4.32;;;8.10;99.90;;;;;;5040079;28;20159;-50
2022/05/04 05:04:08;;;;;;;14.68;4.30;;;8.10;99.90;;;;;;5041021;28;20336;-56
2022/05/04 05:06:34;;;;;;;9.45;4.32;;;8.20;99.90;;;;;;5041013;28;20135;-55
2022/05/04 05:09:00;;;;;;;12.82;4.03;;;8.20;99.90;;;;;;5041573;28;20401;-49
2022/05/04 05:11:26;;;;;;;10.52;4.47;;;8.30;99.90;;;;;;5036769;28;20509;-56
2022/05/04 05:16:36;;;;;;;12.70;3.88;;;8.30;99.90;;;;;;5023997;28;20117;-56
2022/05/04 05:19:03;;;;;;;9.93;3.47;;;8.30;99.90;;;;;;5015629;28;20087;-56
2022/05/04 05:21:29;;;;;;;10.57;3.70;;;8.30;99.90;;;;;;5042035;28;20048;-56
2022/05/04 05:23:55;;;;;;;9.85;3.38;;;8.40;99.90;;;;;;5011847;28;20401;-56
2022/05/04 05:26:21;;;;;;;11.18;3.83;;;8.50;99.90;;;;;;5010966;28;20091;-47
2022/05/04 05:28:47;;;;;;;11.15;4.03;;;8.50;99.90;;;;;;5028265;28;20057;-50
2022/05/04 05:31:13;;;;;;;10.45;3.67;;;8.50;99.90;;;;;;5028117;28;20504;-45
2022/05/04 05:33:40;;;;;;;11.85;4.10;;;8.60;99.90;;;;;;5029681;28;20052;-49
2022/05/04 05:36:07;;;;;;;11.85;4.28;;;8.60;99.90;;;;;;5029939;28;20152;-48
2022/05/04 05:38:33;;;;;;;10.02;3.33;;;8.60;99.90;;;;;;5013499;28;20043;-46
2022/05/04 05:41:01;;;;;;;8.18;3.53;;;8.60;99.90;;;;;;5032859;28;20033;-51
2022/05/04 05:43:28;;;;;;;11.48;4.25;;;8.70;99.90;;;;;;5028848;28;20045;-56
2022/05/04 05:45:54;;;;;;;10.57;3.75;;;8.70;99.90;;;;;;5034429;28;20057;-56
2022/05/04 05:48:20;;;;;;;11.13;4.28;;;8.70;99.90;;;;;;5035071;28;20044;-56
2022/05/04 05:50:47;;;;;;;10.93;3.78;;;8.80;99.90;;;;;;5027264;28;20867;-56
2022/05/04 05:53:14;;;;;;;15.65;4.00;;;8.90;99.90;;;;;;5029116;28;20128;-56
2022/05/04 05:55:41;;;;;;;11.30;3.67;;;8.80;99.90;;;;;;5022947;28;20045;-56
2022/05/04 05:58:09;;;;;;;13.68;4.30;;;8.90;99.90;;;;;;5013331;28;20068;-56
2022/05/04 06:00:36;;;;;;;8.48;4.05;;;9.10;99.90;;;;;;5030885;28;20443;-56
2022/05/04 06:03:03;;;;;;;17.13;4.43;;;9.10;99.90;;;;;;5033579;28;20045;-56
2022/05/04 06:05:29;;;;;;;8.77;3.80;;;9.10;99.90;;;;;;5030480;28;20041;-56
2022/05/04 06:07:55;;;;;;;10.70;3.75;;;9.10;99.90;;;;;;5032569;28;20131;-56
2022/05/04 06:10:22;;;;;;;11.30;3.90;;;9.10;99.90;;;;;;5024466;28;20437;-57
2022/05/04 06:12:48;;;;;;;13.05;4.60;;;9.20;99.90;;;;;;5025050;28;20142;-57
2022/05/04 06:15:16;;;;;;;11.93;4.13;;;9.30;99.90;;;;;;5005908;28;20535;-56
2022/05/04 06:17:44;;;;;;;10.43;3.30;;;9.40;99.90;;;;;;5018464;28;20601;-57
2022/05/04 06:20:10;;;;;;;11.95;3.30;;;9.50;99.90;;;;;;5027286;28;20080;-56
2022/05/04 06:22:36;;;;;;;11.65;4.00;;;9.60;99.90;;;;;;5035045;28;20037;-57
2022/05/04 06:25:03;;;;;;;10.65;4.13;;;9.60;99.90;;;;;;5031167;28;20052;-56
2022/05/04 06:27:30;;;;;;;13.43;3.72;;;9.70;99.90;;;;;;5037653;28;20385;-56
2022/05/04 06:35:25;;;;;;;12.57;3.15;;;9.80;99.90;;;;;;5031937;28;20040;-57
2022/05/04 06:37:52;;;;;;;11.57;2.95;;;9.90;99.90;;;;;;5018231;28;20483;-57
2022/05/04 06:40:18;;;;;;;9.15;2.75;;;10.00;99.90;;;;;;5030944;28;20076;-57
2022/05/04 06:42:44;;;;;;;9.35;3.85;;;9.90;99.90;;;;;;5034879;28;20506;-57
2022/05/04 06:45:11;;;;;;;7.72;2.50;;;10.10;99.90;;;;;;5033341;28;20045;-57
2022/05/04 06:47:37;;;;;;;8.68;2.60;;;10.20;99.90;;;;;;5045528;28;20128;-57
2022/05/04 06:50:03;;;;;;;9.10;2.72;;;10.30;99.90;;;;;;5037076;28;20045;-57
2022/05/04 06:52:31;;;;;;;8.35;2.65;;;10.30;99.90;;;;;;5014427;28;20396;-56
2022/05/04 06:54:58;;;;;;;9.65;2.70;;;10.40;99.90;;;;;;5034743;28;20049;-56
2022/05/04 06:57:24;;;;;;;11.20;2.85;;;10.40;99.90;;;;;;5007861;28;20432;-57
2022/05/04 06:59:50;;;;;;;9.50;3.10;;;10.40;99.90;;;;;;5033067;28;20056;-56
2022/05/04 07:02:17;;;;;;;10.57;3.00;;;10.60;99.90;;;;;;5029153;28;20045;-56
2022/05/04 07:04:43;;;;;;;8.27;2.90;;;10.80;99.90;;;;;;5014839;28;20584;-56
2022/05/04 07:07:09;;;;;;;9.70;2.70;;;10.80;99.90;;;;;;5027089;28;20128;-57
2022/05/04 07:09:35;;;;;;;8.27;2.88;;;11.00;99.90;;;;;;5025209;28;20045;-56
2022/05/04 07:12:01;;;;;;;7.28;2.83;;;11.00;99.90;;;;;;5019435;28;20060;-55
2022/05/04 07:14:28;;;;;;;10.25;3.10;;;11.20;99.90;;;;;;4995031;28;20119;-56
2022/05/04 07:16:54;;;;;;;10.32;2.80;;;11.30;99.90;;;;;;5028502;28;20063;-52
2022/05/04 07:19:20;;;;;;;10.63;2.60;;;11.40;99.90;;;;;;5029886;28;20052;-47
2022/05/04 07:21:46;;;;;;;9.18;2.55;;;11.50;99.90;;;;;;5030391;28;20045;-58
2022/05/04 07:24:12;;;;;;;12.90;3.00;;;11.60;99.90;;;;;;5027770;28;20049;-56
2022/05/04 07:26:40;;;;;;;9.48;3.30;;;11.70;99.90;;;;;;5031458;28;20472;-56
2022/05/04 07:29:07;;;;;;;8.93;4.00;;;11.60;99.90;;;;;;5036293;28;20049;-56
2022/05/04 07:31:33;;;;;;;10.98;2.97;;;11.80;99.90;;;;;;5025912;28;20056;-56
2022/05/04 07:33:59;;;;;;;7.68;2.40;;;12.10;99.90;;;;;;5030704;28;20109;-55
2022/05/04 07:36:25;;;;;;;8.02;2.60;;;12.70;99.90;;;;;;5029885;28;20080;-56
2022/05/04 07:38:51;;;;;;;10.60;3.45;;;12.70;99.90;;;;;;5014081;28;20390;-57
2022/05/04 07:44:02;;;;;;;7.57;2.58;;;13.60;99.90;;;;;;5027767;28;20478;-56
2022/05/04 07:46:28;;;;;;;8.82;2.33;;;14.30;99.90;;;;;;5027838;28;20052;-55
2022/05/04 07:48:55;;;;;;;7.53;2.25;;;14.00;99.90;;;;;;5031870;28;20789;-54
2022/05/04 07:51:22;;;;;;;9.00;2.60;;;14.50;99.90;;;;;;5025481;28;20447;-56
2022/05/04 07:53:48;;;;;;;7.28;2.08;;;14.20;99.90;;;;;;5032428;28;20049;-53
2022/05/04 07:56:14;;;;;;;6.13;1.98;;;14.70;99.90;;;;;;4987408;28;20045;-53
2022/05/04 07:58:40;;;;;;;8.05;2.25;;;15.00;99.90;;;;;;5032116;28;20049;-55
2022/05/04 08:06:36;;;;;;;12.15;4.55;;;14.90;99.90;;;;;;5022464;28;20103;-49
2022/05/04 08:09:03;;;;;;;7.55;2.15;;;14.90;99.90;;;;;;5025723;28;20495;-47
2022/05/04 08:11:29;;;;;;;8.27;2.38;;;14.90;99.30;;;;;;5034594;28;20053;-50
2022/05/04 08:13:56;;;;;;;11.90;3.33;;;15.40;99.90;;;;;;5024249;28;20540;-49
2022/05/04 08:16:22;;;;;;;9.52;2.70;;;15.20;97.80;;;;;;5027875;28;20052;-47
2022/05/04 08:18:48;;;;;;;8.32;2.80;;;15.30;98.20;;;;;;5030216;28;20331;-49
2022/05/04 08:21:14;;;;;;;7.28;2.75;;;14.60;95.70;;;;;;5029950;28;20114;-46
2022/05/04 08:23:41;;;;;;;8.52;2.10;;;14.60;97.30;;;;;;5034913;28;20044;-51
2022/05/04 08:26:07;;;;;;;7.13;2.75;;;15.10;96.20;;;;;;5032915;28;20063;-49
2022/05/04 08:28:33;;;;;;;7.80;2.50;;;15.30;94.70;;;;;;5011248;28;20049;-50
2022/05/04 08:30:59;;;;;;;7.88;2.22;;;15.50;93.90;;;;;;5031117;28;20381;-48
2022/05/04 08:33:25;;;;;;;8.55;3.42;;;16.20;94.90;;;;;;5024223;28;20045;-49
2022/05/04 08:35:51;;;;;;;9.25;2.35;;;16.50;94.30;;;;;;5030624;28;20512;-47
2022/05/04 08:38:17;;;;;;;9.45;2.58;;;16.70;92.70;;;;;;5031052;28;20068;-49
2022/05/04 08:40:44;;;;;;;8.82;3.88;;;16.80;91.00;;;;;;4998842;28;20049;-51
2022/05/04 08:43:13;;;;;;;8.48;2.70;;;16.90;91.80;;;;;;5030952;28;20442;-50
2022/05/04 08:45:40;;;;;;;9.55;2.92;;;16.90;91.80;;;;;;5022646;28;20076;-49
2022/05/04 08:48:08;;;;;;;8.25;2.10;;;16.40;90.10;;;;;;5033567;28;20044;-47
2022/05/04 08:50:39;;;;;;;6.10;1.85;;;16.00;90.50;;;;;;5018645;28;20045;-55
2022/05/04 08:53:05;;;;;;;7.32;2.45;;;16.40;89.40;;;;;;5027107;28;20404;-52
2022/05/04 08:55:31;;;;;;;8.73;2.80;;;16.30;91.60;;;;;;5032128;28;20053;-48
2022/05/04 08:57:57;;;;;;;9.18;2.55;;;16.90;90.00;;;;;;5025154;28;20047;-54
2022/05/04 09:00:24;;;;;;;6.65;2.25;;;17.50;89.50;;;;;;5027590;28;20049;-54
2022/05/04 09:02:51;;;;;;;8.02;2.47;;;17.40;82.50;;;;;;5014861;28;20518;-55
2022/05/04 09:05:26;;;;;;;8.45;2.35;;;17.80;85.70;;;;;;5033801;28;20386;-46
2022/05/04 09:07:54;;;;;;;9.57;2.45;;;17.20;83.40;;;;;;5029834;28;20045;-50
2022/05/04 09:10:21;;;;;;;7.70;2.35;;;17.00;70.60;;;;;;5032107;28;20903;-49
2022/05/04 09:12:49;;;;;;;10.93;3.08;;;16.10;73.70;;;;;;5033684;28;20441;-46
2022/05/04 09:15:30;;;;;;;8.70;2.65;;;15.70;80.00;;;;;;5029646;28;20049;-47
2022/05/04 09:18:01;;;;;;;9.55;2.58;;;15.40;79.90;;;;;;5015323;28;20556;-54
2022/05/04 09:23:25;;;;;;;8.05;2.63;;;15.50;89.50;;;;;;5036380;28;20144;-54
2022/05/04 09:26:02;;;;;;;10.82;2.72;;;16.00;81.60;;;;;;5031837;28;20056;-55
2022/05/04 09:28:29;;;;;;;7.78;2.22;;;16.40;78.90;;;;;;5015776;28;20045;-49
2022/05/04 09:30:57;;;;;;;8.85;2.30;;;16.90;74.30;;;;;;5042937;28;20091;-49
2022/05/04 09:33:27;;;;;;;10.00;3.20;;;17.20;67.60;;;;;;5034132;28;20080;-45
2022/05/04 09:35:57;;;;;;;9.25;2.70;;;18.00;72.60;;;;;;5029836;28;20052;-55
2022/05/04 09:46:48;;;;;;;6.25;2.13;;;16.50;67.20;;;;;;5012487;28;20060;-55
2022/05/04 09:49:19;;;;;;;6.40;2.60;;;15.90;69.70;;;;;;5029648;28;20049;-47
2022/05/04 09:51:51;;;;;;;7.78;2.92;;;16.00;68.00;;;;;;5030573;28;20809;-50
2022/05/04 09:54:19;;;;;;;6.63;2.58;;;16.20;67.80;;;;;;5026391;28;20100;-56
2022/05/04 09:56:48;;;;;;;8.27;2.10;;;16.70;70.40;;;;;;5034933;28;20513;-47
2022/05/04 09:59:16;;;;;;;9.93;4.80;;;17.30;65.60;;;;;;5032051;28;20080;-61
2022/05/04 10:01:43;;;;;;;8.57;2.88;;;17.50;63.80;;;;;;5029334;28;20041;-55
2022/05/04 10:04:10;;;;;;;6.05;2.78;;;18.50;67.00;;;;;;5033543;28;20281;-59
2022/05/04 10:06:37;;;;;;;7.25;2.55;;;18.60;59.50;;;;;;5024238;28;20049;-59
2022/05/04 10:09:05;;;;;;;8.85;2.35;;;18.60;52.80;;;;;;5042397;28;20512;-59
2022/05/04 10:11:34;;;;;;;6.03;2.35;;;18.80;57.80;;;;;;5032872;28;20045;-55
2022/05/04 10:14:10;;;;;;;8.73;2.53;;;18.40;54.60;;;;;;5043382;28;20037;-59
2022/05/04 10:17:06;;;;;;;6.97;2.50;;;18.70;49.90;;;;;;5041815;28;20488;-59
2022/05/04 10:20:09;;;;;;;7.10;2.50;;;18.10;49.40;;;;;;5042380;28;20052;-53
2022/05/04 10:22:47;;;;;;;8.15;2.53;;;18.60;49.00;;;;;;5032222;28;20163;-52
2022/05/04 10:25:14;;;;;;;5.45;2.30;;;18.60;47.80;;;;;;5033265;28;20076;-52
2022/05/04 10:27:42;;;;;;;6.82;2.70;;;19.10;49.20;;;;;;5032084;28;20045;-54
2022/05/04 10:33:00;;;;;;;10.18;2.95;;;19.20;48.30;;;;;;5035612;28;20049;-53
2022/05/04 10:35:38;;;;;;;10.23;3.03;;;19.60;48.80;;;;;;5018703;28;20042;-53
2022/05/04 10:38:16;;;;;;;7.18;2.78;;;20.10;50.80;;;;;;5031854;28;20057;-54
2022/05/04 10:40:57;;;;;;;8.38;3.15;;;20.60;47.00;;;;;;5023896;28;20511;-53
2022/05/04 10:43:54;;;;;;;15.38;9.85;;;20.80;46.30;;;;;;5027735;28;20672;-54
2022/05/04 10:46:22;;;;;;;8.63;2.90;;;20.40;43.50;;;;;;5037934;28;20513;-48
2022/05/04 10:49:02;;;;;;;6.90;2.58;;;20.50;47.00;;;;;;5036253;28;20053;-54
2022/05/04 10:51:31;;;;;;;11.75;4.50;;;21.10;45.70;;;;;;5037701;28;20216;-53
2022/05/04 10:54:13;;;;;;;12.52;6.38;;;20.60;45.00;;;;;;5034210;28;21348;-54
2022/05/04 10:56:50;;;;;;;7.95;2.67;;;20.90;46.00;;;;;;5031678;28;20050;-54
2022/05/04 10:59:29;;;;;;;8.45;2.50;;;21.50;44.50;;;;;;5028462;28;20356;-54
2022/05/04 11:02:04;;;;;;;8.43;2.33;;;21.60;44.20;;;;;;5031239;28;20155;-53
2022/05/04 11:04:30;;;;;;;8.05;2.50;;;21.60;44.70;;;;;;5033137;28;20337;-52
2022/05/04 11:06:59;;;;;;;8.20;3.05;;;20.50;41.40;;;;;;5034117;28;20459;-55
2022/05/04 11:09:29;;;;;;;12.05;6.13;;;21.20;43.90;;;;;;5032966;28;20519;-54
2022/05/04 11:11:57;;;;;;;20.38;15.10;;;21.60;42.80;;;;;;5028991;28;20134;-57
2022/05/04 11:14:24;;;;;;;5.80;2.22;;;21.50;42.90;;;;;;5039657;28;20049;-55
2022/05/04 11:16:52;;;;;;;7.55;3.58;;;21.60;41.90;;;;;;5025275;28;20053;-55
2022/05/04 11:19:22;;;;;;;12.32;2.95;;;21.30;41.70;;;;;;5028959;28;20703;-54
2022/05/04 11:21:48;;;;;;;9.27;3.28;;;20.60;42.20;;;;;;5028337;28;20048;-59
2022/05/04 11:24:15;;;;;;;6.78;3.22;;;20.60;42.50;;;;;;5031861;28;20440;-59
2022/05/04 11:26:46;;;;;;;10.43;3.50;;;20.90;42.50;;;;;;5033898;28;20056;-59
2022/05/04 11:29:14;;;;;;;;;;;21.50;43.70;;;;;;5050418;28;20483;-60
2022/05/04 11:31:45;;;;;;;7.72;4.00;;;21.40;41.30;;;;;;5034068;28;19929;-61
2022/05/04 11:34:15;;;;;;;;;;;21.40;43.00;;;;;;5029043;28;20048;-60
2022/05/04 11:36:44;;;;;;;6.22;2.60;;;21.60;41.90;;;;;;5033617;28;19925;-60
2022/05/04 11:39:17;;;;;;;24.02;21.48;;;21.40;42.70;;;;;;5036788;28;20075;-61
2022/05/04 11:41:47;;;;;;;7.00;2.60;;;22.10;41.50;;;;;;5052946;28;20056;-61
2022/05/04 11:44:14;;;;;;;11.30;5.20;;;21.80;42.40;;;;;;5011775;28;20128;-61
2022/05/04 11:46:44;;;;;;;7.93;2.65;;;22.00;41.20;;;;;;5031482;28;20064;-60
2022/05/04 11:49:11;;;;;;;6.55;2.15;;;21.60;41.80;;;;;;5025704;28;20144;-61
2022/05/04 11:51:38;;;;;;;7.90;3.38;;;21.10;42.00;;;;;;5009588;28;20131;-61
2022/05/04 11:54:04;;;;;;;7.88;2.63;;;20.90;40.80;;;;;;5017094;28;20036;-61
2022/05/04 11:56:31;;;;;;;9.25;2.75;;;21.40;42.30;;;;;;5031458;28;20107;-60
2022/05/04 11:58:57;;;;;;;6.78;2.22;;;22.00;41.60;;;;;;5025797;28;20046;-54
2022/05/04 12:01:24;;;;;;;8.35;2.60;;;21.30;40.50;;;;;;5024089;28;20088;-61
2022/05/04 12:03:51;;;;;;;8.07;2.20;;;21.60;41.00;;;;;;5026380;28;20045;-54
2022/05/04 12:06:18;;;;;;;6.10;2.60;;;21.00;40.90;;;;;;5030998;28;20045;-54
2022/05/04 12:08:44;;;;;;;6.45;2.35;;;20.90;40.30;;;;;;5027809;28;20523;-53
2022/05/04 12:11:11;;;;;;;8.18;2.78;;;21.10;40.90;;;;;;5009001;28;20056;-54
2022/05/04 12:13:41;;;;;;;7.28;2.40;;;21.00;40.90;;;;;;5024755;28;20045;-52
2022/05/04 12:16:08;;;;;;;5.03;1.70;;;21.60;41.20;;;;;;5025280;28;20053;-53
2022/05/04 12:18:36;;;;;;;5.88;1.95;;;21.10;40.10;;;;;;5034288;28;20048;-54
2022/05/04 12:21:09;;;;;;;7.45;2.80;;;20.90;41.10;;;;;;5033935;28;20101;-51
2022/05/04 12:23:37;;;;;;;8.40;2.30;;;20.50;41.40;;;;;;5012377;28;20099;-52
2022/05/04 12:26:04;;;;;;;6.97;2.60;;;20.50;42.70;;;;;;5032786;28;20068;-53
2022/05/04 12:28:30;;;;;;;9.18;2.15;;;20.10;41.90;;;;;;5030256;28;20643;-53
2022/05/04 12:33:42;;;;;;;11.93;2.58;;;20.20;42.80;;;;;;5038782;28;20484;-51
2022/05/04 12:36:12;;;;;;;8.30;2.95;;;20.50;42.70;;;;;;5025574;28;20045;-51
2022/05/04 12:38:45;;;;;;;9.05;2.53;;;21.30;42.30;;;;;;5033718;28;20045;-53
2022/05/04 12:41:15;;;;;;;6.70;2.25;;;21.20;41.00;;;;;;5031286;28;20386;-55
2022/05/04 12:43:41;;;;;;;5.93;2.15;;;21.00;40.60;;;;;;5033591;28;20059;-53
2022/05/04 12:46:13;;;;;;;7.55;2.47;;;20.90;41.30;;;;;;5033729;28;20948;-54
2022/05/04 12:48:41;;;;;;;8.57;2.92;;;21.60;41.70;;;;;;5029442;28;20037;-54
2022/05/04 12:51:07;;;;;;;7.05;2.47;;;21.60;40.20;;;;;;5032822;28;20558;-60
2022/05/04 12:53:34;;;;;;;6.85;2.53;;;21.90;39.70;;;;;;5012143;28;20060;-61
2022/05/04 12:58:45;;;;;;;7.57;2.30;;;21.90;39.10;;;;;;5030188;28;20545;-60
2022/05/04 13:01:12;;;;;;;18.35;2.50;;;22.80;39.80;;;;;;5022031;28;20551;-61
2022/05/04 13:03:38;;;;;;;7.50;2.53;;;22.40;40.10;;;;;;5030533;28;20099;-61
2022/05/04 13:06:04;;;;;;;7.53;2.50;;;22.30;38.70;;;;;;5039442;28;20051;-61
2022/05/04 13:08:30;;;;;;;8.57;2.45;;;22.50;39.30;;;;;;5003739;28;20551;-60
2022/05/04 13:10:57;;;;;;;8.98;2.58;;;22.70;38.60;;;;;;5035993;28;20087;-54
2022/05/04 13:13:25;;;;;;;8.45;4.15;;;22.50;38.00;;;;;;5029945;28;20119;-54
2022/05/04 13:15:52;;;;;;;6.45;2.70;;;22.80;38.80;;;;;;5028900;28;20178;-55
2022/05/04 13:18:21;;;;;;;10.27;4.47;;;22.90;38.10;;;;;;5033223;28;20053;-53
2022/05/04 13:20:48;;;;;;;10.80;3.20;;;23.80;38.20;;;;;;5032841;28;20049;-55
2022/05/04 13:23:14;;;;;;;8.40;3.10;;;23.10;37.20;;;;;;5021496;28;20053;-54
2022/05/04 13:25:41;;;;;;;7.57;3.33;;;22.70;38.20;;;;;;5029652;28;21393;-52
2022/05/04 13:28:07;;;;;;;9.80;2.92;;;24.00;37.80;;;;;;5037391;28;20054;-54
2022/05/04 13:30:35;;;;;;;7.15;3.50;;;24.00;36.90;;;;;;5028185;28;20130;-56
2022/05/04 13:33:01;;;;;;;6.97;2.97;;;24.00;36.30;;;;;;5033078;28;20051;-54
2022/05/04 13:35:28;;;;;;;10.10;3.10;;;23.70;36.00;;;;;;5031211;28;20760;-55
2022/05/04 13:37:55;;;;;;;8.82;3.70;;;24.00;37.10;;;;;;5034633;28;20045;-54